Leopard Sea — 9VNR4 — position and weather

sailwx.info

Track history (hours):
 
Tides and Currents Weather Stations Pressure Air Temp Water Temp Dewpoint Dewpoint Depression Visibility Wind Speed Wind Dir Waves Ship Positions

Leopard Sea

Last reported at 2018-May-19 21:50 UTC. Time now 2018-May-23 03:38 UTC.
Position N 28°39' W 094°25'.

Length 183 m; draft 11.5 m.

Type: Ship. MMSI: 563200000.

Date/timePositionNaut miles runAvg speedWind from/ knotsBaromVisibWave heightAir tempDewpointWater temp
2018-May-19 21:50N 28°39' W 094°25'3110.7
2018-May-19 18:57N 29°10' W 094°28'4 8.8
2018-May-19 18:30N 29°12' W 094°32'3 5.4
2018-May-19 17:55N 29°14' W 094°34'1 2.6
2018-May-19 17:29N 29°14' W 094°36'0 0.5
2018-May-19 16:56N 29°14' W 094°35'0 0.0
2018-May-19 16:29N 29°14' W 094°35'0 0.0
2018-May-19 15:56N 29°14' W 094°35'0 0.0
2018-May-19 15:29N 29°14' W 094°35'0 0.0
2018-May-19 14:59N 29°14' W 094°35'0 0.0
2018-May-19 14:29N 29°14' W 094°35'0 0.0
2018-May-19 13:59N 29°14' W 094°35'0 0.0
2018-May-19 12:17N 29°14' W 094°35'0 0.0
2018-May-19 11:50N 29°14' W 094°35'0 0.0
2018-May-19 11:29N 29°14' W 094°35'0 0.0
2018-May-19 10:56N 29°14' W 094°35'0 0.0
2018-May-19 10:29N 29°14' W 094°35'0 0.0
2018-May-19 09:50N 29°14' W 094°35'0 0.0
2018-May-19 09:08N 29°14' W 094°35'0 0.0
2018-May-19 08:59N 29°14' W 094°35'0 0.0
2018-May-19 08:23N 29°14' W 094°35'0 0.0
2018-May-19 07:59N 29°14' W 094°35'0 0.0
2018-May-19 07:29N 29°14' W 094°35'0 0.0
2018-May-19 06:38N 29°14' W 094°35'0 0.0
2018-May-19 06:14N 29°14' W 094°35'0 0.0
2018-May-19 05:56N 29°14' W 094°35'0 0.0
2018-May-19 04:56N 29°14' W 094°35'0 0.0
2018-May-19 04:23N 29°14' W 094°35'0 0.0
2018-May-19 03:59N 29°14' W 094°35'0 0.0
2018-May-19 03:26N 29°14' W 094°35'0 0.0
2018-May-19 02:47N 29°14' W 094°35'0 0.0
2018-May-19 02:26N 29°14' W 094°35'0 0.1
2018-May-19 01:26N 29°14' W 094°35'2 3.8
2018-May-19 00:56N 29°16' W 094°35'4 8.7
2018-May-19 00:30N 29°19' W 094°38'511.0
2018-May-19 00:00N 29°21' W 094°44'510.0
2018-May-18 23:30N 29°22' W 094°50'3 6.4
2018-May-18 23:00N 29°22' W 094°53'0 0.0
2018-May-18 12:22N 29°22' W 094°53'0 0.0
2018-May-18 11:52N 29°22' W 094°53'0 0.0
2018-May-18 11:19N 29°22' W 094°53'0 0.0
2018-May-18 10:55N 29°22' W 094°53'0 0.0
2018-May-18 10:28N 29°22' W 094°53'0 0.0
2018-May-18 09:58N 29°22' W 094°53'0 0.0
2018-May-18 09:22N 29°22' W 094°53'0 0.0
2018-May-18 08:58N 29°22' W 094°53'0 0.0
2018-May-18 08:28N 29°22' W 094°53'0 0.0
2018-May-18 07:58N 29°22' W 094°53'0 0.0
2018-May-18 07:25N 29°22' W 094°53'0 0.0
2018-May-18 06:58N 29°22' W 094°53'0 0.0
2018-May-18 06:28N 29°22' W 094°53'0 0.0
2018-May-18 05:55N 29°22' W 094°53'0 0.0
2018-May-18 05:25N 29°22' W 094°53'0 0.0
2018-May-18 04:55N 29°22' W 094°53'0 0.0
2018-May-18 04:13N 29°22' W 094°53'0 0.0
2018-May-18 03:58N 29°22' W 094°53'0 0.0
2018-May-18 03:22N 29°22' W 094°53'0 0.0
2018-May-18 02:58N 29°22' W 094°53'0 0.0
2018-May-18 02:28N 29°22' W 094°53'0 0.0
2018-May-18 01:55N 29°22' W 094°53'0 0.0
2018-May-18 01:28N 29°22' W 094°53'0 0.0
2018-May-18 00:58N 29°22' W 094°53'0 0.0
2018-May-18 00:25N 29°22' W 094°53'0 0.0
2018-May-17 23:55N 29°22' W 094°53'0 0.0
2018-May-17 23:25N 29°22' W 094°53'0 0.0
2018-May-17 13:40N 29°22' W 094°53'0 0.0
2018-May-17 13:28N 29°22' W 094°53'0 0.0
2018-May-17 12:55N 29°22' W 094°53'0 0.0
2018-May-17 12:22N 29°22' W 094°53'0 0.0
2018-May-17 10:22N 29°22' W 094°53'0 0.0
2018-May-17 09:31N 29°22' W 094°53'0 0.0
2018-May-17 09:07N 29°22' W 094°53'0 0.0
2018-May-17 08:58N 29°22' W 094°53'0 0.0
2018-May-17 07:19N 29°22' W 094°53'0 0.0
2018-May-17 06:34N 29°22' W 094°53'0 0.0
2018-May-17 06:25N 29°22' W 094°53'0 0.0
2018-May-17 05:58N 29°22' W 094°53'0 0.0
2018-May-17 05:22N 29°22' W 094°53'0 0.0
2018-May-17 04:52N 29°22' W 094°53'0 0.0
2018-May-17 04:25N 29°22' W 094°53'0 0.0
2018-May-17 03:58N 29°22' W 094°53'0 0.0
2018-May-17 03:22N 29°22' W 094°53'0 0.0
2018-May-17 02:58N 29°22' W 094°53'0 0.0
2018-May-17 02:13N 29°22' W 094°53'0 0.0
2018-May-17 01:55N 29°22' W 094°53'0 0.0
2018-May-17 01:22N 29°22' W 094°53'0 0.1
2018-May-17 01:00N 29°22' W 094°53'1 1.8
2018-May-17 00:30N 29°23' W 094°52'4 8.5
2018-May-17 00:01N 29°21' W 094°48'612.0
2018-May-16 23:30N 29°20' W 094°41'613.0
2018-May-16 23:00N 29°17' W 094°35'510.9
2018-May-16 22:30N 29°14' W 094°29'2 3.4
2018-May-16 22:00N 29°14' W 094°27'0 0.1
2018-May-16 21:30N 29°14' W 094°27'0 0.0
2018-May-16 21:00N 29°14' W 094°27'0 0.0
2018-May-16 20:30N 29°14' W 094°27'0 0.0
2018-May-16 20:00N 29°14' W 094°27'0 0.1
2018-May-16 19:30N 29°14' W 094°27'0 0.0
2018-May-16 19:00N 29°14' W 094°27'0 0.1
2018-May-16 18:27N 29°14' W 094°27'0 0.0
2018-May-16 17:39N 29°14' W 094°27'0 0.1
2018-May-16 17:24N 29°14' W 094°27'0 0.0
2018-May-16 16:54N 29°14' W 094°27'0 0.0
2018-May-16 16:27N 29°14' W 094°27'0 0.0
2018-May-16 16:00N 29°14' W 094°27'0 0.0
2018-May-16 15:30N 29°14' W 094°27'0 0.0
2018-May-16 15:00N 29°14' W 094°27'0 0.0
2018-May-16 14:30N 29°14' W 094°27'0 0.0
2018-May-16 14:00N 29°14' W 094°27'0 0.0
2018-May-16 13:30N 29°14' W 094°27'0 0.1
2018-May-16 13:00N 29°14' W 094°27'0 0.1
2018-May-16 12:30N 29°14' W 094°27'0 0.0
2018-May-16 12:00N 29°14' W 094°27'0 0.0
2018-May-16 11:30N 29°14' W 094°27'0 0.1
2018-May-16 11:00N 29°14' W 094°27'0 0.1
2018-May-16 10:30N 29°14' W 094°27'0 0.0
2018-May-16 10:00N 29°14' W 094°27'0 0.1
2018-May-16 09:30N 29°14' W 094°27'0 0.0
2018-May-16 09:00N 29°14' W 094°27'0 0.0
2018-May-16 08:30N 29°14' W 094°27'0 0.0
2018-May-16 08:00N 29°14' W 094°27'0 0.0
2018-May-16 07:30N 29°14' W 094°27'0 0.0
2018-May-16 07:00N 29°14' W 094°27'0 0.0
2018-May-16 06:30N 29°14' W 094°27'0 0.0
2018-May-16 06:00N 29°14' W 094°27'0 0.0
2018-May-16 05:30N 29°14' W 094°27'0 0.0
2018-May-16 05:00N 29°14' W 094°27'0 0.0
2018-May-16 04:30N 29°14' W 094°27'0 0.0
2018-May-16 04:00N 29°14' W 094°27'0 0.0
2018-May-16 03:30N 29°14' W 094°27'0 0.1
2018-May-16 03:00N 29°14' W 094°27'0 0.2
2018-May-16 02:30N 29°14' W 094°27'0 0.1
2018-May-16 02:00N 29°14' W 094°27'0 0.1
2018-May-16 01:27N 29°14' W 094°28'0 0.1
2018-May-16 01:00N 29°14' W 094°28'0 0.0
2018-May-16 00:30N 29°14' W 094°28'0 0.0
2018-May-16 00:00N 29°14' W 094°28'0 0.0
2018-May-15 23:30N 29°14' W 094°28'0 0.0
2018-May-15 23:00N 29°14' W 094°28'0 0.0
2018-May-15 22:30N 29°14' W 094°28'0 0.0
2018-May-15 22:00N 29°14' W 094°28'0 0.0
2018-May-15 21:24N 29°14' W 094°28'0 0.0
2018-May-15 21:00N 29°14' W 094°28'0 0.0
2018-May-15 20:30N 29°14' W 094°28'0 0.0
2018-May-15 20:00N 29°14' W 094°28'0 0.0
2018-May-15 19:30N 29°14' W 094°28'0 0.0
2018-May-15 19:00N 29°14' W 094°28'0 0.0
2018-May-15 18:30N 29°14' W 094°28'0 0.0
2018-May-15 18:00N 29°14' W 094°28'0 0.0
2018-May-15 17:30N 29°14' W 094°28'0 0.0
2018-May-15 17:00N 29°14' W 094°28'0 0.0
2018-May-15 16:30N 29°14' W 094°28'0 0.0
2018-May-15 16:00N 29°14' W 094°28'0 0.0
2018-May-15 15:30N 29°14' W 094°28'0 0.0
2018-May-15 15:00N 29°14' W 094°28'0 0.0
2018-May-15 14:30N 29°14' W 094°28'0 0.0
2018-May-15 14:00N 29°14' W 094°28'0 0.0
2018-May-15 13:30N 29°14' W 094°28'0 0.0
2018-May-15 13:00N 29°14' W 094°28'0 0.0
2018-May-15 12:30N 29°14' W 094°28'0 0.0
2018-May-15 12:00N 29°14' W 094°28'0 0.0
2018-May-15 11:30N 29°14' W 094°28'0 0.0
2018-May-15 11:00N 29°14' W 094°28'0 0.1
2018-May-15 10:30N 29°14' W 094°28'0 0.1
2018-May-15 10:00N 29°14' W 094°28'0 0.1
2018-May-15 09:30N 29°14' W 094°28'0 0.1
2018-May-15 09:00N 29°14' W 094°28'0 0.0
2018-May-15 08:30N 29°14' W 094°28'0 0.0
2018-May-15 08:00N 29°14' W 094°28'0 0.0
2018-May-15 07:30N 29°14' W 094°28'0 0.1
2018-May-15 07:00N 29°14' W 094°28'0 0.0
2018-May-15 06:27N 29°14' W 094°28'0 0.0
2018-May-15 06:00N 29°14' W 094°28'0 0.0
2018-May-15 05:30N 29°14' W 094°28'0 0.0
2018-May-15 05:00N 29°14' W 094°28'0 0.0
2018-May-15 04:30N 29°14' W 094°28'0 0.0
2018-May-15 04:00N 29°14' W 094°28'0 0.1
2018-May-15 03:30N 29°14' W 094°28'0 0.1
2018-May-15 03:00N 29°14' W 094°28'0 0.0
2018-May-15 02:30N 29°14' W 094°28'0 0.0
2018-May-15 01:57N 29°14' W 094°28'0 0.0
2018-May-15 01:30N 29°14' W 094°28'0 0.0
2018-May-15 01:00N 29°14' W 094°28'0 0.0
2018-May-15 00:30N 29°14' W 094°28'0 0.0
2018-May-15 00:00N 29°14' W 094°28'0 0.0
2018-May-14 23:30N 29°14' W 094°28'0 0.0
2018-May-14 22:57N 29°14' W 094°28'0 0.0
2018-May-14 22:30N 29°14' W 094°28'0 0.0
2018-May-14 22:00N 29°14' W 094°28'0 0.0
2018-May-14 21:27N 29°14' W 094°28'0 0.0
2018-May-14 21:00N 29°14' W 094°28'0 0.0
2018-May-14 20:30N 29°14' W 094°28'0 0.0
2018-May-14 20:00N 29°14' W 094°28'0 0.0
2018-May-14 19:30N 29°14' W 094°28'0 0.0
2018-May-14 19:00N 29°14' W 094°28'0 0.0
2018-May-14 18:30N 29°14' W 094°28'0 0.0
2018-May-14 18:00N 29°14' W 094°28'0 0.0
2018-May-14 17:27N 29°14' W 094°28'0 0.0
2018-May-14 17:00N 29°14' W 094°28'0 0.0
2018-May-14 16:27N 29°14' W 094°28'0 0.0
2018-May-14 16:00N 29°14' W 094°28'0 0.0
2018-May-14 15:30N 29°14' W 094°28'0 0.0
2018-May-14 15:00N 29°14' W 094°28'0 0.0
2018-May-14 14:30N 29°14' W 094°28'0 0.0
2018-May-14 14:00N 29°14' W 094°28'0 0.0
2018-May-14 13:30N 29°14' W 094°28'0 0.0
2018-May-14 12:54N 29°14' W 094°28'0 0.0
2018-May-14 12:30N 29°14' W 094°28'0 0.0
2018-May-14 11:48N 29°14' W 094°28'0 0.0
2018-May-14 11:21N 29°14' W 094°28'0 0.0
2018-May-14 10:51N 29°14' W 094°28'0 0.0
2018-May-14 10:30N 29°14' W 094°28'0 0.0
2018-May-14 09:48N 29°14' W 094°28'0 0.0
2018-May-14 09:30N 29°14' W 094°28'0 0.0
2018-May-14 09:00N 29°14' W 094°28'0 0.0
2018-May-14 07:45N 29°14' W 094°28'0 0.0
2018-May-14 07:15N 29°14' W 094°28'0 0.0
2018-May-13 22:45N 29°14' W 094°28'0 0.0
2018-May-13 04:12N 29°14' W 094°28'0 0.0
2018-May-13 03:27N 29°14' W 094°28'0 0.0
2018-May-12 20:09N 29°14' W 094°28'0 0.3
2018-May-12 20:00N 29°14' W 094°28'1 2.4
2018-May-12 19:27N 29°13' W 094°28'5 8.2
2018-May-12 18:49N 29°10' W 094°24'511.9
2018-May-12 18:26N 29°08' W 094°19'2210.5
2018-May-12 16:22N 28°55' W 093°59'512.0
2018-May-12 15:59N 28°53' W 093°54'612.0
2018-May-12 15:30N 28°49' W 093°49'612.1
2018-May-12 14:59N 28°46' W 093°43'3 7.0
2018-May-12 14:30N 28°44' W 093°40'711.7
2018-May-12 13:56N 28°40' W 093°34'612.8
2018-May-12 13:30N 28°36' W 093°29'611.4
2018-May-12 12:58N 28°32' W 093°24'612.0
2018-May-12 12:30N 28°29' W 093°18'611.9
2018-May-12 12:01N 28°26' W 093°13'612.1
2018-May-12 11:30N 28°22' W 093°07'612.0
2018-May-12 11:00N 28°19' W 093°01'612.1
2018-May-12 10:29N 28°15' W 092°56'611.9
2018-May-12 09:59N 28°11' W 092°51'612.1
2018-May-12 09:30N 28°07' W 092°47'712.1
2018-May-12 08:57N 28°01' W 092°42'612.2
2018-May-12 08:26N 27°56' W 092°38'512.4
2018-May-12 08:00N 27°52' W 092°34'812.4
2018-May-12 07:23N 27°48' W 092°27'  
Track history (hours):
 
Tides and Currents Weather Stations Pressure Air Temp Water Temp Dewpoint Dewpoint Depression Visibility Wind Speed Wind Dir Waves Ship Positions

Leopard Sea

Last reported at 2018-May-19 21:50 UTC. Time now 2018-May-23 03:38 UTC.
Position N 28°39' W 094°25'.

Length 183 m; draft 11.5 m.

Type: Ship. MMSI: 563200000.

Date/timePositionNaut miles runAvg speedWind from/ knotsBaromVisibWave heightAir tempDewpointWater temp
2018-May-19 21:50N 28°39' W 094°25'3110.7
2018-May-19 18:57N 29°10' W 094°28'4 8.8
2018-May-19 18:30N 29°12' W 094°32'3 5.4
2018-May-19 17:55N 29°14' W 094°34'1 2.6
2018-May-19 17:29N 29°14' W 094°36'0 0.5
2018-May-19 16:56N 29°14' W 094°35'0 0.0
2018-May-19 16:29N 29°14' W 094°35'0 0.0
2018-May-19 15:56N 29°14' W 094°35'0 0.0
2018-May-19 15:29N 29°14' W 094°35'0 0.0
2018-May-19 14:59N 29°14' W 094°35'0 0.0
2018-May-19 14:29N 29°14' W 094°35'0 0.0
2018-May-19 13:59N 29°14' W 094°35'0 0.0
2018-May-19 12:17N 29°14' W 094°35'0 0.0
2018-May-19 11:50N 29°14' W 094°35'0 0.0
2018-May-19 11:29N 29°14' W 094°35'0 0.0
2018-May-19 10:56N 29°14' W 094°35'0 0.0
2018-May-19 10:29N 29°14' W 094°35'0 0.0
2018-May-19 09:50N 29°14' W 094°35'0 0.0
2018-May-19 09:08N 29°14' W 094°35'0 0.0
2018-May-19 08:59N 29°14' W 094°35'0 0.0
2018-May-19 08:23N 29°14' W 094°35'0 0.0
2018-May-19 07:59N 29°14' W 094°35'0 0.0
2018-May-19 07:29N 29°14' W 094°35'0 0.0
2018-May-19 06:38N 29°14' W 094°35'0 0.0
2018-May-19 06:14N 29°14' W 094°35'0 0.0
2018-May-19 05:56N 29°14' W 094°35'0 0.0
2018-May-19 04:56N 29°14' W 094°35'0 0.0
2018-May-19 04:23N 29°14' W 094°35'0 0.0
2018-May-19 03:59N 29°14' W 094°35'0 0.0
2018-May-19 03:26N 29°14' W 094°35'0 0.0
2018-May-19 02:47N 29°14' W 094°35'0 0.0
2018-May-19 02:26N 29°14' W 094°35'0 0.1
2018-May-19 01:26N 29°14' W 094°35'2 3.8
2018-May-19 00:56N 29°16' W 094°35'4 8.7
2018-May-19 00:30N 29°19' W 094°38'511.0
2018-May-19 00:00N 29°21' W 094°44'510.0
2018-May-18 23:30N 29°22' W 094°50'3 6.4
2018-May-18 23:00N 29°22' W 094°53'0 0.0
2018-May-18 12:22N 29°22' W 094°53'0 0.0
2018-May-18 11:52N 29°22' W 094°53'0 0.0
2018-May-18 11:19N 29°22' W 094°53'0 0.0
2018-May-18 10:55N 29°22' W 094°53'0 0.0
2018-May-18 10:28N 29°22' W 094°53'0 0.0
2018-May-18 09:58N 29°22' W 094°53'0 0.0
2018-May-18 09:22N 29°22' W 094°53'0 0.0
2018-May-18 08:58N 29°22' W 094°53'0 0.0
2018-May-18 08:28N 29°22' W 094°53'0 0.0
2018-May-18 07:58N 29°22' W 094°53'0 0.0
2018-May-18 07:25N 29°22' W 094°53'0 0.0
2018-May-18 06:58N 29°22' W 094°53'0 0.0
2018-May-18 06:28N 29°22' W 094°53'0 0.0
2018-May-18 05:55N 29°22' W 094°53'0 0.0
2018-May-18 05:25N 29°22' W 094°53'0 0.0
2018-May-18 04:55N 29°22' W 094°53'0 0.0
2018-May-18 04:13N 29°22' W 094°53'0 0.0
2018-May-18 03:58N 29°22' W 094°53'0 0.0
2018-May-18 03:22N 29°22' W 094°53'0 0.0
2018-May-18 02:58N 29°22' W 094°53'0 0.0
2018-May-18 02:28N 29°22' W 094°53'0 0.0
2018-May-18 01:55N 29°22' W 094°53'0 0.0
2018-May-18 01:28N 29°22' W 094°53'0 0.0
2018-May-18 00:58N 29°22' W 094°53'0 0.0
2018-May-18 00:25N 29°22' W 094°53'0 0.0
2018-May-17 23:55N 29°22' W 094°53'0 0.0
2018-May-17 23:25N 29°22' W 094°53'0 0.0
2018-May-17 13:40N 29°22' W 094°53'0 0.0
2018-May-17 13:28N 29°22' W 094°53'0 0.0
2018-May-17 12:55N 29°22' W 094°53'0 0.0
2018-May-17 12:22N 29°22' W 094°53'0 0.0
2018-May-17 10:22N 29°22' W 094°53'0 0.0
2018-May-17 09:31N 29°22' W 094°53'0 0.0
2018-May-17 09:07N 29°22' W 094°53'0 0.0
2018-May-17 08:58N 29°22' W 094°53'0 0.0
2018-May-17 07:19N 29°22' W 094°53'0 0.0
2018-May-17 06:34N 29°22' W 094°53'0 0.0
2018-May-17 06:25N 29°22' W 094°53'0 0.0
2018-May-17 05:58N 29°22' W 094°53'0 0.0
2018-May-17 05:22N 29°22' W 094°53'0 0.0
2018-May-17 04:52N 29°22' W 094°53'0 0.0
2018-May-17 04:25N 29°22' W 094°53'0 0.0
2018-May-17 03:58N 29°22' W 094°53'0 0.0
2018-May-17 03:22N 29°22' W 094°53'0 0.0
2018-May-17 02:58N 29°22' W 094°53'0 0.0
2018-May-17 02:13N 29°22' W 094°53'0 0.0
2018-May-17 01:55N 29°22' W 094°53'0 0.0
2018-May-17 01:22N 29°22' W 094°53'0 0.1
2018-May-17 01:00N 29°22' W 094°53'1 1.8
2018-May-17 00:30N 29°23' W 094°52'4 8.5
2018-May-17 00:01N 29°21' W 094°48'612.0
2018-May-16 23:30N 29°20' W 094°41'613.0
2018-May-16 23:00N 29°17' W 094°35'510.9
2018-May-16 22:30N 29°14' W 094°29'2 3.4
2018-May-16 22:00N 29°14' W 094°27'0 0.1
2018-May-16 21:30N 29°14' W 094°27'0 0.0
2018-May-16 21:00N 29°14' W 094°27'0 0.0
2018-May-16 20:30N 29°14' W 094°27'0 0.0
2018-May-16 20:00N 29°14' W 094°27'0 0.1
2018-May-16 19:30N 29°14' W 094°27'0 0.0
2018-May-16 19:00N 29°14' W 094°27'0 0.1
2018-May-16 18:27N 29°14' W 094°27'0 0.0
2018-May-16 17:39N 29°14' W 094°27'0 0.1
2018-May-16 17:24N 29°14' W 094°27'0 0.0
2018-May-16 16:54N 29°14' W 094°27'0 0.0
2018-May-16 16:27N 29°14' W 094°27'0 0.0
2018-May-16 16:00N 29°14' W 094°27'0 0.0
2018-May-16 15:30N 29°14' W 094°27'0 0.0
2018-May-16 15:00N 29°14' W 094°27'0 0.0
2018-May-16 14:30N 29°14' W 094°27'0 0.0
2018-May-16 14:00N 29°14' W 094°27'0 0.0
2018-May-16 13:30N 29°14' W 094°27'0 0.1
2018-May-16 13:00N 29°14' W 094°27'0 0.1
2018-May-16 12:30N 29°14' W 094°27'0 0.0
2018-May-16 12:00N 29°14' W 094°27'0 0.0
2018-May-16 11:30N 29°14' W 094°27'0 0.1
2018-May-16 11:00N 29°14' W 094°27'0 0.1
2018-May-16 10:30N 29°14' W 094°27'0 0.0
2018-May-16 10:00N 29°14' W 094°27'0 0.1
2018-May-16 09:30N 29°14' W 094°27'0 0.0
2018-May-16 09:00N 29°14' W 094°27'0 0.0
2018-May-16 08:30N 29°14' W 094°27'0 0.0
2018-May-16 08:00N 29°14' W 094°27'0 0.0
2018-May-16 07:30N 29°14' W 094°27'0 0.0
2018-May-16 07:00N 29°14' W 094°27'0 0.0
2018-May-16 06:30N 29°14' W 094°27'0 0.0
2018-May-16 06:00N 29°14' W 094°27'0 0.0
2018-May-16 05:30N 29°14' W 094°27'0 0.0
2018-May-16 05:00N 29°14' W 094°27'0 0.0
2018-May-16 04:30N 29°14' W 094°27'0 0.0
2018-May-16 04:00N 29°14' W 094°27'0 0.0
2018-May-16 03:30N 29°14' W 094°27'0 0.1
2018-May-16 03:00N 29°14' W 094°27'0 0.2
2018-May-16 02:30N 29°14' W 094°27'0 0.1
2018-May-16 02:00N 29°14' W 094°27'0 0.1
2018-May-16 01:27N 29°14' W 094°28'0 0.1
2018-May-16 01:00N 29°14' W 094°28'0 0.0
2018-May-16 00:30N 29°14' W 094°28'0 0.0
2018-May-16 00:00N 29°14' W 094°28'0 0.0
2018-May-15 23:30N 29°14' W 094°28'0 0.0
2018-May-15 23:00N 29°14' W 094°28'0 0.0
2018-May-15 22:30N 29°14' W 094°28'0 0.0
2018-May-15 22:00N 29°14' W 094°28'0 0.0
2018-May-15 21:24N 29°14' W 094°28'0 0.0
2018-May-15 21:00N 29°14' W 094°28'0 0.0
2018-May-15 20:30N 29°14' W 094°28'0 0.0
2018-May-15 20:00N 29°14' W 094°28'0 0.0
2018-May-15 19:30N 29°14' W 094°28'0 0.0
2018-May-15 19:00N 29°14' W 094°28'0 0.0
2018-May-15 18:30N 29°14' W 094°28'0 0.0
2018-May-15 18:00N 29°14' W 094°28'0 0.0
2018-May-15 17:30N 29°14' W 094°28'0 0.0
2018-May-15 17:00N 29°14' W 094°28'0 0.0
2018-May-15 16:30N 29°14' W 094°28'0 0.0
2018-May-15 16:00N 29°14' W 094°28'0 0.0
2018-May-15 15:30N 29°14' W 094°28'0 0.0
2018-May-15 15:00N 29°14' W 094°28'0 0.0
2018-May-15 14:30N 29°14' W 094°28'0 0.0
2018-May-15 14:00N 29°14' W 094°28'0 0.0
2018-May-15 13:30N 29°14' W 094°28'0 0.0
2018-May-15 13:00N 29°14' W 094°28'0 0.0
2018-May-15 12:30N 29°14' W 094°28'0 0.0
2018-May-15 12:00N 29°14' W 094°28'0 0.0
2018-May-15 11:30N 29°14' W 094°28'0 0.0
2018-May-15 11:00N 29°14' W 094°28'0 0.1
2018-May-15 10:30N 29°14' W 094°28'0 0.1
2018-May-15 10:00N 29°14' W 094°28'0 0.1
2018-May-15 09:30N 29°14' W 094°28'0 0.1
2018-May-15 09:00N 29°14' W 094°28'0 0.0
2018-May-15 08:30N 29°14' W 094°28'0 0.0
2018-May-15 08:00N 29°14' W 094°28'0 0.0
2018-May-15 07:30N 29°14' W 094°28'0 0.1
2018-May-15 07:00N 29°14' W 094°28'0 0.0
2018-May-15 06:27N 29°14' W 094°28'0 0.0
2018-May-15 06:00N 29°14' W 094°28'0 0.0
2018-May-15 05:30N 29°14' W 094°28'0 0.0
2018-May-15 05:00N 29°14' W 094°28'0 0.0
2018-May-15 04:30N 29°14' W 094°28'0 0.0
2018-May-15 04:00N 29°14' W 094°28'0 0.1
2018-May-15 03:30N 29°14' W 094°28'0 0.1
2018-May-15 03:00N 29°14' W 094°28'0 0.0
2018-May-15 02:30N 29°14' W 094°28'0 0.0
2018-May-15 01:57N 29°14' W 094°28'0 0.0
2018-May-15 01:30N 29°14' W 094°28'0 0.0
2018-May-15 01:00N 29°14' W 094°28'0 0.0
2018-May-15 00:30N 29°14' W 094°28'0 0.0
2018-May-15 00:00N 29°14' W 094°28'0 0.0
2018-May-14 23:30N 29°14' W 094°28'0 0.0
2018-May-14 22:57N 29°14' W 094°28'0 0.0
2018-May-14 22:30N 29°14' W 094°28'0 0.0
2018-May-14 22:00N 29°14' W 094°28'0 0.0
2018-May-14 21:27N 29°14' W 094°28'0 0.0
2018-May-14 21:00N 29°14' W 094°28'0 0.0
2018-May-14 20:30N 29°14' W 094°28'0 0.0
2018-May-14 20:00N 29°14' W 094°28'0 0.0
2018-May-14 19:30N 29°14' W 094°28'0 0.0
2018-May-14 19:00N 29°14' W 094°28'0 0.0
2018-May-14 18:30N 29°14' W 094°28'0 0.0
2018-May-14 18:00N 29°14' W 094°28'0 0.0
2018-May-14 17:27N 29°14' W 094°28'0 0.0
2018-May-14 17:00N 29°14' W 094°28'0 0.0
2018-May-14 16:27N 29°14' W 094°28'0 0.0
2018-May-14 16:00N 29°14' W 094°28'0 0.0
2018-May-14 15:30N 29°14' W 094°28'0 0.0
2018-May-14 15:00N 29°14' W 094°28'0 0.0
2018-May-14 14:30N 29°14' W 094°28'0 0.0
2018-May-14 14:00N 29°14' W 094°28'0 0.0
2018-May-14 13:30N 29°14' W 094°28'0 0.0
2018-May-14 12:54N 29°14' W 094°28'0 0.0
2018-May-14 12:30N 29°14' W 094°28'0 0.0
2018-May-14 11:48N 29°14' W 094°28'0 0.0
2018-May-14 11:21N 29°14' W 094°28'0 0.0
2018-May-14 10:51N 29°14' W 094°28'0 0.0
2018-May-14 10:30N 29°14' W 094°28'0 0.0
2018-May-14 09:48N 29°14' W 094°28'0 0.0
2018-May-14 09:30N 29°14' W 094°28'0 0.0
2018-May-14 09:00N 29°14' W 094°28'0 0.0
2018-May-14 07:45N 29°14' W 094°28'0 0.0
2018-May-14 07:15N 29°14' W 094°28'0 0.0
2018-May-13 22:45N 29°14' W 094°28'0 0.0
2018-May-13 04:12N 29°14' W 094°28'0 0.0
2018-May-13 03:27N 29°14' W 094°28'0 0.0
2018-May-12 20:09N 29°14' W 094°28'0 0.3
2018-May-12 20:00N 29°14' W 094°28'1 2.4
2018-May-12 19:27N 29°13' W 094°28'5 8.2
2018-May-12 18:49N 29°10' W 094°24'511.9
2018-May-12 18:26N 29°08' W 094°19'2210.5
2018-May-12 16:22N 28°55' W 093°59'512.0
2018-May-12 15:59N 28°53' W 093°54'612.0
2018-May-12 15:30N 28°49' W 093°49'612.1
2018-May-12 14:59N 28°46' W 093°43'3 7.0
2018-May-12 14:30N 28°44' W 093°40'711.7
2018-May-12 13:56N 28°40' W 093°34'612.8
2018-May-12 13:30N 28°36' W 093°29'611.4
2018-May-12 12:58N 28°32' W 093°24'612.0
2018-May-12 12:30N 28°29' W 093°18'611.9
2018-May-12 12:01N 28°26' W 093°13'612.1
2018-May-12 11:30N 28°22' W 093°07'612.0
2018-May-12 11:00N 28°19' W 093°01'612.1
2018-May-12 10:29N 28°15' W 092°56'611.9
2018-May-12 09:59N 28°11' W 092°51'612.1
2018-May-12 09:30N 28°07' W 092°47'712.1
2018-May-12 08:57N 28°01' W 092°42'612.2
2018-May-12 08:26N 27°56' W 092°38'512.4
2018-May-12 08:00N 27°52' W 092°34'812.4
2018-May-12 07:23N 27°48' W 092°27'  

Dump ship's entire track history